CMA CGM Aristote — MRPN4 — position and weather

sailwx.info

Track history (hours):
 
Tides and Currents Weather Stations Pressure Air Temp Water Temp Dewpoint Dewpoint Depression Visibility Wind Speed Wind Dir Waves Ship Positions

CMA CGM Aristote

Last reported at 2016-Apr-29 18:34 UTC. Time now 2016-May-03 12:35 UTC.
Position N 35°57' W 005°34'.

Length 170 m; draft 8.2 m.

Type: Ship (hazmat cat A). MMSI: 235054581.

Date/timePositionNaut miles runAvg speedWind from/ knotsBaromVisibWave heightAir tempDewpointWater temp
2016-Apr-29 18:34N 35°57' W 005°34'231 8.6
2016-Apr-28 15:33N 37°43' W 009°50'2919.5
2016-Apr-28 14:05N 38°11' W 009°58'1119.8
2016-Apr-28 13:33N 38°22' W 010°00'1919.8
2016-Apr-28 12:33N 38°41' W 010°06'  
2016-Apr-26 06:25N 49°48' W 003°32'1719.4
2016-Apr-26 05:33N 49°55' W 003°09'2120.7
2016-Apr-26 04:34N 50°01' W 002°38'6521.5
2016-Apr-26 01:33N 49°46' W 001°01'1919.4
2016-Apr-26 00:33N 49°39' W 000°33'1818.0
2016-Apr-25 23:33N 49°30' W 000°08'1212.3
2016-Apr-25 22:33N 49°26' E 000°09'1010.3
2016-Apr-25 21:33N 49°27' E 000°25'7 7.5
2016-Apr-25 20:33N 49°26' E 000°36'8 7.9
2016-Apr-25 19:33N 49°30' E 000°46'  
2016-Apr-23 10:19N 49°26' E 000°48'6 6.9
2016-Apr-23 09:24N 49°30' E 000°40'7 8.4
2016-Apr-23 08:34N 49°29' E 000°29'1514.6
2016-Apr-23 07:33N 49°26' E 000°07'1010.1
2016-Apr-23 06:33N 49°30' W 000°07'8 7.7
2016-Apr-23 05:33N 49°29' E 000°05'4 3.6
2016-Apr-23 04:33N 49°27' E 000°10'0 0.0
2016-Apr-23 03:33N 49°27' E 000°10'0 0.0
2016-Apr-23 02:33N 49°27' E 000°10'0 0.0
2016-Apr-23 01:33N 49°27' E 000°10'0 0.0
2016-Apr-23 00:33N 49°27' E 000°10'0 0.0
2016-Apr-22 23:33N 49°27' E 000°10'0 0.0
2016-Apr-22 22:33N 49°27' E 000°10'0 0.0
2016-Apr-22 21:33N 49°27' E 000°10'0 0.0
2016-Apr-22 20:33N 49°27' E 000°10'0 0.0
2016-Apr-22 19:33N 49°27' E 000°10'0 0.0
2016-Apr-22 18:33N 49°27' E 000°10'0 0.0
2016-Apr-22 17:33N 49°27' E 000°10'0 0.0
2016-Apr-22 16:33N 49°27' E 000°10'0 0.0
2016-Apr-22 15:33N 49°27' E 000°10'0 0.0
2016-Apr-22 14:33N 49°27' E 000°10'0 0.0
2016-Apr-22 13:33N 49°27' E 000°10'0 0.0
2016-Apr-22 12:33N 49°27' E 000°10'0 0.0
2016-Apr-22 11:33N 49°27' E 000°10'3 2.9
2016-Apr-22 10:33N 49°28' E 000°05'10 9.9
2016-Apr-22 09:33N 49°35' W 000°06'1312.5
2016-Apr-22 08:33N 49°48' W 000°05'1313.0
2016-Apr-22 07:33N 50°01' W 000°04'1414.2
2016-Apr-22 06:34N 50°15' W 000°04'1313.3
2016-Apr-22 05:33N 50°28' E 000°01'1615.6
2016-Apr-22 04:33N 50°32' E 000°25'1815.7
2016-Apr-22 03:24N 50°40' E 000°50'1415.8
2016-Apr-22 02:31N 50°49' E 001°08'1515.2
2016-Apr-22 01:33N 50°59' E 001°24'1212.0
2016-Apr-22 00:34N 51°06' E 001°40'1110.7
2016-Apr-21 23:33N 51°02' E 001°56'10 9.8
2016-Apr-21 22:33N 51°00' E 002°11'0 0.0
2016-Apr-21 21:33N 51°00' E 002°11'0 0.0
2016-Apr-21 20:30N 51°00' E 002°11'0 0.0
2016-Apr-21 19:12N 51°00' E 002°11'0 0.0
2016-Apr-21 18:33N 51°00' E 002°11'0 0.0
2016-Apr-21 17:33N 51°00' E 002°11'0 0.0
2016-Apr-21 16:33N 51°00' E 002°11'0 0.0
2016-Apr-21 15:33N 51°00' E 002°11'0 0.0
2016-Apr-21 14:33N 51°00' E 002°11'3 2.6
2016-Apr-21 13:33N 51°03' E 002°09'1413.7
2016-Apr-21 12:34N 51°03' E 001°47'1111.0
2016-Apr-21 11:34N 51°14' E 001°47'1414.1
2016-Apr-21 10:34N 51°24' E 002°02'1515.1
2016-Apr-21 09:33N 51°22' E 002°26'1515.2
2016-Apr-21 08:33N 51°22' E 002°51'1413.8
2016-Apr-21 07:33N 51°24' E 003°13'1414.0
2016-Apr-21 06:33N 51°26' E 003°35'1212.3
2016-Apr-21 05:34N 51°21' E 003°53'10 9.8
2016-Apr-21 04:34N 51°23' E 004°09'7 6.6
2016-Apr-21 03:33N 51°18' E 004°16'0 0.0
2016-Apr-21 02:31N 51°18' E 004°16'0 0.0
2016-Apr-21 01:31N 51°18' E 004°16'0 0.0
2016-Apr-21 00:31N 51°18' E 004°16'0 0.0
2016-Apr-20 23:31N 51°18' E 004°16'0 0.0
2016-Apr-20 22:28N 51°18' E 004°16'0 0.0
2016-Apr-20 21:31N 51°18' E 004°16'0 0.0
2016-Apr-20 20:22N 51°18' E 004°16'0 0.0
2016-Apr-20 19:31N 51°18' E 004°16'0 0.0
2016-Apr-20 18:31N 51°18' E 004°16'0 0.0
2016-Apr-20 17:25N 51°18' E 004°16'1 1.2
2016-Apr-20 16:33N 51°19' E 004°16'7 6.9
2016-Apr-20 15:33N 51°22' E 004°07'6 6.3
2016-Apr-20 14:34N 51°23' E 003°57'10 9.7
2016-Apr-20 13:33N 51°24' E 003°41'1010.3
2016-Apr-20 12:33N 51°30' E 003°28'1110.7
2016-Apr-20 11:33N 51°39' E 003°19'12 8.6
2016-Apr-20 10:09N 51°46' E 003°03'1 1.5
2016-Apr-20 09:23N 51°47' E 003°05'2 2.3
2016-Apr-20 08:33N 51°47' E 003°02'1 0.5
2016-Apr-20 07:29N 51°47' E 003°02'0 0.1
2016-Apr-20 06:12N 51°47' E 003°02'1 1.1
2016-Apr-20 05:27N 51°47' E 003°03'1 1.1
2016-Apr-20 04:33N 51°47' E 003°02'1 0.5
2016-Apr-20 03:33N 51°47' E 003°01'0 0.2
2016-Apr-20 02:31N 51°47' E 003°02'1 1.2
2016-Apr-20 01:29N 51°48' E 003°03'0 0.4
2016-Apr-20 00:24N 51°47' E 003°02'1 0.8
2016-Apr-19 23:33N 51°47' E 003°03'3 3.1
2016-Apr-19 22:32N 51°49' E 003°07'7 6.7
2016-Apr-19 21:30N 51°53' E 003°16'6 6.8
2016-Apr-19 20:33N 51°59' E 003°19'8 6.1
2016-Apr-19 19:09N 52°04' E 003°29'  
Track history (hours):
 
Tides and Currents Weather Stations Pressure Air Temp Water Temp Dewpoint Dewpoint Depression Visibility Wind Speed Wind Dir Waves Ship Positions

CMA CGM Aristote

Last reported at 2016-Apr-29 18:34 UTC. Time now 2016-May-03 12:35 UTC.
Position N 35°57' W 005°34'.

Length 170 m; draft 8.2 m.

Type: Ship (hazmat cat A). MMSI: 235054581.

Date/timePositionNaut miles runAvg speedWind from/ knotsBaromVisibWave heightAir tempDewpointWater temp
2016-Apr-29 18:34N 35°57' W 005°34'231 8.6
2016-Apr-28 15:33N 37°43' W 009°50'2919.5
2016-Apr-28 14:05N 38°11' W 009°58'1119.8
2016-Apr-28 13:33N 38°22' W 010°00'1919.8
2016-Apr-28 12:33N 38°41' W 010°06'  
2016-Apr-26 06:25N 49°48' W 003°32'1719.4
2016-Apr-26 05:33N 49°55' W 003°09'2120.7
2016-Apr-26 04:34N 50°01' W 002°38'6521.5
2016-Apr-26 01:33N 49°46' W 001°01'1919.4
2016-Apr-26 00:33N 49°39' W 000°33'1818.0
2016-Apr-25 23:33N 49°30' W 000°08'1212.3
2016-Apr-25 22:33N 49°26' E 000°09'1010.3
2016-Apr-25 21:33N 49°27' E 000°25'7 7.5
2016-Apr-25 20:33N 49°26' E 000°36'8 7.9
2016-Apr-25 19:33N 49°30' E 000°46'  
2016-Apr-23 10:19N 49°26' E 000°48'6 6.9
2016-Apr-23 09:24N 49°30' E 000°40'7 8.4
2016-Apr-23 08:34N 49°29' E 000°29'1514.6
2016-Apr-23 07:33N 49°26' E 000°07'1010.1
2016-Apr-23 06:33N 49°30' W 000°07'8 7.7
2016-Apr-23 05:33N 49°29' E 000°05'4 3.6
2016-Apr-23 04:33N 49°27' E 000°10'0 0.0
2016-Apr-23 03:33N 49°27' E 000°10'0 0.0
2016-Apr-23 02:33N 49°27' E 000°10'0 0.0
2016-Apr-23 01:33N 49°27' E 000°10'0 0.0
2016-Apr-23 00:33N 49°27' E 000°10'0 0.0
2016-Apr-22 23:33N 49°27' E 000°10'0 0.0
2016-Apr-22 22:33N 49°27' E 000°10'0 0.0
2016-Apr-22 21:33N 49°27' E 000°10'0 0.0
2016-Apr-22 20:33N 49°27' E 000°10'0 0.0
2016-Apr-22 19:33N 49°27' E 000°10'0 0.0
2016-Apr-22 18:33N 49°27' E 000°10'0 0.0
2016-Apr-22 17:33N 49°27' E 000°10'0 0.0
2016-Apr-22 16:33N 49°27' E 000°10'0 0.0
2016-Apr-22 15:33N 49°27' E 000°10'0 0.0
2016-Apr-22 14:33N 49°27' E 000°10'0 0.0
2016-Apr-22 13:33N 49°27' E 000°10'0 0.0
2016-Apr-22 12:33N 49°27' E 000°10'0 0.0
2016-Apr-22 11:33N 49°27' E 000°10'3 2.9
2016-Apr-22 10:33N 49°28' E 000°05'10 9.9
2016-Apr-22 09:33N 49°35' W 000°06'1312.5
2016-Apr-22 08:33N 49°48' W 000°05'1313.0
2016-Apr-22 07:33N 50°01' W 000°04'1414.2
2016-Apr-22 06:34N 50°15' W 000°04'1313.3
2016-Apr-22 05:33N 50°28' E 000°01'1615.6
2016-Apr-22 04:33N 50°32' E 000°25'1815.7
2016-Apr-22 03:24N 50°40' E 000°50'1415.8
2016-Apr-22 02:31N 50°49' E 001°08'1515.2
2016-Apr-22 01:33N 50°59' E 001°24'1212.0
2016-Apr-22 00:34N 51°06' E 001°40'1110.7
2016-Apr-21 23:33N 51°02' E 001°56'10 9.8
2016-Apr-21 22:33N 51°00' E 002°11'0 0.0
2016-Apr-21 21:33N 51°00' E 002°11'0 0.0
2016-Apr-21 20:30N 51°00' E 002°11'0 0.0
2016-Apr-21 19:12N 51°00' E 002°11'0 0.0
2016-Apr-21 18:33N 51°00' E 002°11'0 0.0
2016-Apr-21 17:33N 51°00' E 002°11'0 0.0
2016-Apr-21 16:33N 51°00' E 002°11'0 0.0
2016-Apr-21 15:33N 51°00' E 002°11'0 0.0
2016-Apr-21 14:33N 51°00' E 002°11'3 2.6
2016-Apr-21 13:33N 51°03' E 002°09'1413.7
2016-Apr-21 12:34N 51°03' E 001°47'1111.0
2016-Apr-21 11:34N 51°14' E 001°47'1414.1
2016-Apr-21 10:34N 51°24' E 002°02'1515.1
2016-Apr-21 09:33N 51°22' E 002°26'1515.2
2016-Apr-21 08:33N 51°22' E 002°51'1413.8
2016-Apr-21 07:33N 51°24' E 003°13'1414.0
2016-Apr-21 06:33N 51°26' E 003°35'1212.3
2016-Apr-21 05:34N 51°21' E 003°53'10 9.8
2016-Apr-21 04:34N 51°23' E 004°09'7 6.6
2016-Apr-21 03:33N 51°18' E 004°16'0 0.0
2016-Apr-21 02:31N 51°18' E 004°16'0 0.0
2016-Apr-21 01:31N 51°18' E 004°16'0 0.0
2016-Apr-21 00:31N 51°18' E 004°16'0 0.0
2016-Apr-20 23:31N 51°18' E 004°16'0 0.0
2016-Apr-20 22:28N 51°18' E 004°16'0 0.0
2016-Apr-20 21:31N 51°18' E 004°16'0 0.0
2016-Apr-20 20:22N 51°18' E 004°16'0 0.0
2016-Apr-20 19:31N 51°18' E 004°16'0 0.0
2016-Apr-20 18:31N 51°18' E 004°16'0 0.0
2016-Apr-20 17:25N 51°18' E 004°16'1 1.2
2016-Apr-20 16:33N 51°19' E 004°16'7 6.9
2016-Apr-20 15:33N 51°22' E 004°07'6 6.3
2016-Apr-20 14:34N 51°23' E 003°57'10 9.7
2016-Apr-20 13:33N 51°24' E 003°41'1010.3
2016-Apr-20 12:33N 51°30' E 003°28'1110.7
2016-Apr-20 11:33N 51°39' E 003°19'12 8.6
2016-Apr-20 10:09N 51°46' E 003°03'1 1.5
2016-Apr-20 09:23N 51°47' E 003°05'2 2.3
2016-Apr-20 08:33N 51°47' E 003°02'1 0.5
2016-Apr-20 07:29N 51°47' E 003°02'0 0.1
2016-Apr-20 06:12N 51°47' E 003°02'1 1.1
2016-Apr-20 05:27N 51°47' E 003°03'1 1.1
2016-Apr-20 04:33N 51°47' E 003°02'1 0.5
2016-Apr-20 03:33N 51°47' E 003°01'0 0.2
2016-Apr-20 02:31N 51°47' E 003°02'1 1.2
2016-Apr-20 01:29N 51°48' E 003°03'0 0.4
2016-Apr-20 00:24N 51°47' E 003°02'1 0.8
2016-Apr-19 23:33N 51°47' E 003°03'3 3.1
2016-Apr-19 22:32N 51°49' E 003°07'7 6.7
2016-Apr-19 21:30N 51°53' E 003°16'6 6.8
2016-Apr-19 20:33N 51°59' E 003°19'8 6.1
2016-Apr-19 19:09N 52°04' E 003°29'  

Dump ship's entire track history